createdAt,value
2022-08-09T03:29:09.693Z,5.60
2022-08-09T03:31:59.993Z,7.00
2022-08-09T03:34:34.996Z,9.80
2022-08-09T03:37:10.729Z,14.00
2022-08-09T03:40:04.856Z,15.25
2022-08-09T03:42:39.826Z,14.00
2022-08-09T03:45:17.829Z,15.00
2022-08-09T03:48:11.608Z,18.00
2022-08-09T05:25:45.477Z,6.60
2022-08-09T05:28:25.222Z,6.60
2022-08-09T05:30:59.223Z,6.00
2022-08-09T05:39:29.441Z,6.00
2022-08-09T05:42:09.678Z,7.00
2022-08-09T05:44:52.551Z,6.00
2022-08-09T05:47:30.367Z,8.00
2022-08-09T05:50:34.876Z,5.50
2022-08-09T05:53:02.366Z,6.00
2022-08-09T05:55:36.012Z,6.00
2022-08-09T05:58:18.305Z,5.50
2022-08-09T06:01:18.905Z,6.00
2022-08-09T06:04:17.927Z,5.75
2022-08-09T06:07:01.391Z,5.00
2022-08-09T06:10:01.791Z,6.00
2022-08-09T06:12:35.269Z,9.00
2022-08-09T06:15:11.241Z,7.00
2022-08-09T06:17:47.284Z,8.00
2022-08-09T06:20:21.961Z,6.00
2022-08-09T06:22:55.828Z,5.00
2022-08-09T06:25:29.650Z,3.00
2022-08-09T06:28:03.658Z,4.60
2022-08-09T06:30:39.678Z,6.00
2022-08-09T06:33:41.142Z,5.00
2022-08-09T06:36:13.772Z,6.00
2022-08-09T06:39:09.326Z,5.75
2022-08-09T06:42:08.729Z,6.00
2022-08-09T06:44:44.903Z,6.00
2022-08-09T06:47:39.622Z,5.00
2022-08-09T06:50:24.328Z,6.00
2022-08-09T06:53:01.573Z,4.00
2022-08-09T06:55:35.557Z,5.00
2022-08-09T06:58:40.822Z,4.00
2022-08-09T07:01:09.419Z,6.00
2022-08-09T07:03:52.442Z,5.00
2022-08-09T07:06:28.045Z,5.00
2022-08-09T07:09:04.078Z,4.00
2022-08-09T07:11:52.303Z,7.00
2022-08-09T07:14:32.624Z,5.40
2022-08-09T07:17:08.220Z,5.00
2022-08-09T07:19:55.591Z,5.00
2022-08-09T07:22:35.108Z,5.00
2022-08-09T07:25:11.829Z,5.00
2022-08-09T07:27:53.142Z,3.60
2022-08-09T07:30:32.740Z,5.00
2022-08-09T07:33:16.643Z,6.00
2022-08-09T07:35:56.133Z,5.00
2022-08-09T07:38:31.184Z,6.00
2022-08-09T07:41:13.113Z,4.00
2022-08-09T07:43:50.160Z,5.00
2022-08-09T07:46:30.903Z,4.80
2022-08-09T07:49:18.465Z,6.00
2022-08-09T07:52:04.613Z,4.20
2022-08-09T07:55:02.086Z,5.00
2022-08-09T07:57:47.286Z,5.00
2022-08-09T08:00:55.961Z,4.50
2022-08-09T08:03:36.792Z,4.60
2022-08-09T08:06:14.225Z,5.00
2022-08-09T08:09:03.099Z,5.00
2022-08-09T08:12:24.276Z,4.00
2022-08-09T08:14:33.630Z,5.00
2022-08-09T08:17:08.921Z,6.20
2022-08-09T08:19:45.747Z,5.80
2022-08-09T08:22:24.254Z,5.00
2022-08-09T08:25:02.956Z,6.00
2022-08-09T08:27:43.361Z,4.60
2022-08-09T08:30:21.393Z,5.00
2022-08-09T08:32:57.832Z,4.00
2022-08-09T08:35:59.458Z,5.80
2022-08-09T08:38:28.020Z,7.00
2022-08-09T08:41:06.259Z,4.00
2022-08-09T08:43:41.730Z,6.00
2022-08-09T08:46:33.044Z,6.00
2022-08-09T08:49:38.598Z,5.00
2022-08-09T08:52:57.907Z,6.00
2022-08-09T08:55:23.266Z,6.60
2022-08-09T08:57:59.863Z,5.00
2022-08-09T09:00:37.323Z,6.40
2022-08-09T09:03:25.316Z,6.20
2022-08-09T09:06:11.565Z,6.25
2022-08-09T09:08:45.424Z,5.60
2022-08-09T09:11:27.590Z,7.40
2022-08-09T09:14:01.459Z,7.00
2022-08-09T09:16:35.589Z,6.00
2022-08-09T09:22:05.175Z,5.60
2022-08-09T09:24:39.800Z,5.80
2022-08-09T09:28:04.039Z,8.80
2022-08-09T09:30:31.546Z,5.20
2022-08-09T09:33:16.554Z,6.00
2022-08-09T09:36:00.847Z,8.40
2022-08-09T09:38:37.611Z,7.50
2022-08-09T09:41:11.483Z,8.00
2022-08-09T09:44:10.626Z,7.40
2022-08-09T09:46:41.872Z,7.00
2022-08-09T09:49:18.625Z,8.20
2022-08-09T09:52:06.285Z,7.00
2022-08-09T09:54:54.826Z,7.00
2022-08-09T09:58:02.833Z,6.00
2022-08-09T10:00:28.630Z,7.60
2022-08-09T10:03:20.308Z,7.00
2022-08-09T10:06:00.888Z,6.00
2022-08-09T10:08:43.226Z,7.80
2022-08-09T10:11:53.575Z,6.00
2022-08-09T10:14:30.416Z,7.40
2022-08-09T10:17:23.902Z,9.00
2022-08-09T10:20:00.147Z,6.25
2022-08-09T10:22:42.411Z,8.00
2022-08-09T10:25:16.787Z,5.80
2022-08-09T10:28:16.753Z,6.00
2022-08-09T10:34:08.480Z,6.50
2022-08-09T10:36:42.174Z,6.60
2022-08-09T10:39:18.350Z,6.00
2022-08-09T10:41:54.233Z,7.75
2022-08-09T10:44:31.803Z,9.20
2022-08-09T10:48:11.939Z,7.00
2022-08-09T10:50:01.071Z,7.60
2022-08-09T10:52:37.535Z,7.00
2022-08-09T10:55:16.642Z,6.25
2022-08-09T10:57:51.856Z,5.25
2022-08-09T11:00:27.066Z,5.20
2022-08-09T11:03:13.787Z,6.40
2022-08-09T11:06:00.283Z,5.00
2022-08-09T11:09:15.529Z,6.75
2022-08-09T11:11:51.853Z,8.00
2022-08-09T11:14:29.052Z,5.40
2022-08-09T11:17:06.595Z,6.40
2022-08-09T11:20:10.717Z,7.25
2022-08-09T11:22:35.920Z,7.00
2022-08-09T11:25:11.572Z,6.40
2022-08-09T11:28:03.201Z,6.00
2022-08-09T11:30:39.218Z,5.20
2022-08-09T11:33:22.073Z,6.40
2022-08-09T11:35:56.056Z,7.00
2022-08-09T11:38:33.176Z,7.00
2022-08-09T11:41:09.811Z,5.40
2022-08-09T11:43:49.471Z,6.60
2022-08-09T11:46:32.932Z,5.60
2022-08-09T11:49:17.677Z,6.00
2022-08-09T11:52:59.036Z,6.00
2022-08-09T11:54:57.386Z,6.00
2022-08-09T11:57:59.878Z,6.80
2022-08-09T12:00:28.554Z,7.00
2022-08-09T12:03:09.907Z,5.40
2022-08-09T12:05:56.375Z,6.00
2022-08-09T12:08:30.261Z,6.00
2022-08-09T12:11:04.802Z,7.00
2022-08-09T12:14:08.501Z,6.00
2022-08-09T12:16:41.552Z,6.00
2022-08-09T12:19:17.157Z,6.00
2022-08-09T12:21:52.983Z,6.50
2022-08-09T12:24:28.094Z,7.00
2022-08-09T12:29:10.123Z,7.00
2022-08-09T12:30:01.809Z,7.00
2022-08-09T12:32:50.874Z,7.00
2022-08-09T12:35:25.656Z,5.40
2022-08-09T12:38:03.355Z,7.00
2022-08-09T12:40:38.586Z,6.00
2022-08-09T12:43:15.421Z,7.00
2022-08-09T12:46:00.273Z,7.40
2022-08-09T12:48:37.433Z,5.00
2022-08-09T12:51:12.444Z,4.00
2022-08-09T12:54:04.504Z,6.40
2022-08-09T12:56:48.254Z,6.00
2022-08-09T12:59:22.984Z,5.75
2022-08-09T13:01:56.857Z,6.00
2022-08-09T13:04:38.061Z,5.40
2022-08-09T13:07:50.281Z,7.00
2022-08-09T13:10:26.928Z,5.60
2022-08-09T13:13:10.856Z,7.00
2022-08-09T13:15:45.755Z,7.75
2022-08-09T13:18:20.614Z,8.00
2022-08-09T13:22:34.379Z,6.00
2022-08-09T13:24:17.464Z,7.00
2022-08-09T13:26:49.667Z,7.25
2022-08-09T13:29:41.979Z,7.25
2022-08-09T13:32:26.481Z,6.00
2022-08-09T13:35:02.631Z,6.00
2022-08-09T13:37:51.698Z,5.40
2022-08-09T13:41:51.051Z,6.40
2022-08-09T13:43:39.802Z,5.60
2022-08-09T13:47:16.799Z,7.00
2022-08-09T13:49:18.280Z,6.60
2022-08-09T13:52:00.633Z,8.00
2022-08-09T13:54:35.539Z,9.00
2022-08-09T13:57:35.387Z,6.80
2022-08-09T14:00:10.146Z,4.75
2022-08-09T14:03:16.713Z,5.60
2022-08-09T14:06:02.191Z,4.60
2022-08-09T14:08:37.621Z,4.60
2022-08-09T14:11:16.743Z,6.00
2022-08-09T14:14:22.412Z,7.00
2022-08-09T14:16:45.471Z,5.00
2022-08-09T14:19:20.438Z,5.00
2022-08-09T14:22:11.649Z,9.80
2022-08-09T14:24:53.447Z,17.00
2022-08-09T14:27:29.171Z,10.50
2022-08-09T14:30:37.267Z,9.00
2022-08-09T14:33:08.315Z,8.50
2022-08-09T14:35:52.105Z,12.00
2022-08-09T14:38:28.730Z,8.60
2022-08-09T14:41:12.904Z,7.00
2022-08-09T14:44:18.237Z,7.80
2022-08-09T14:47:26.187Z,7.25
2022-08-09T14:50:02.010Z,8.00
2022-08-09T14:52:37.371Z,8.00
2022-08-09T14:55:12.343Z,9.60
2022-08-09T14:57:54.495Z,7.40
2022-08-09T15:00:30.494Z,7.60
2022-08-09T15:03:05.421Z,7.50
2022-08-09T15:05:40.325Z,8.25
2022-08-09T15:08:25.795Z,9.00
2022-08-09T15:11:05.071Z,6.00
2022-08-09T15:13:48.433Z,5.50
2022-08-09T15:16:31.402Z,5.00
2022-08-09T15:19:16.125Z,7.00
2022-08-09T15:22:01.637Z,6.00
2022-08-09T15:24:36.819Z,6.00
2022-08-09T15:27:25.175Z,4.75
2022-08-09T15:30:56.558Z,6.60
2022-08-09T15:32:56.996Z,5.60
2022-08-09T15:35:40.790Z,5.40
2022-08-09T15:38:19.088Z,5.50
2022-08-09T15:40:52.922Z,5.00
2022-08-09T15:43:29.988Z,7.00
2022-08-09T15:46:32.590Z,7.60
2022-08-09T15:49:22.704Z,11.00
2022-08-09T15:52:04.113Z,10.50
2022-08-09T15:54:46.346Z,9.00
2022-08-09T15:57:29.560Z,8.00
2022-08-09T16:00:14.035Z,9.60
2022-08-09T16:02:54.050Z,8.75
2022-08-09T16:05:47.008Z,9.00
2022-08-09T16:08:30.396Z,11.00
2022-08-09T16:11:05.945Z,11.00
2022-08-09T16:14:02.653Z,13.33
2022-08-09T16:16:58.095Z,11.60
2022-08-09T16:19:36.511Z,11.00
2022-08-09T16:22:15.785Z,10.40
2022-08-09T16:24:56.959Z,11.00
2022-08-09T16:27:36.024Z,9.40
2022-08-09T16:30:15.109Z,11.00
2022-08-09T16:33:12.406Z,11.00
2022-08-09T16:35:57.389Z,11.40
2022-08-09T16:38:35.602Z,11.20
2022-08-09T16:41:16.504Z,12.00
2022-08-09T16:43:51.773Z,12.00
2022-08-09T16:46:27.481Z,13.00
2022-08-09T16:49:18.768Z,13.00
2022-08-09T16:52:07.759Z,14.00
2022-08-09T16:54:44.910Z,14.00
2022-08-09T16:57:20.774Z,14.00
2022-08-09T16:59:57.846Z,15.00
2022-08-09T17:02:34.972Z,15.80
2022-08-09T17:05:09.667Z,15.25
2022-08-09T17:08:46.351Z,14.60
2022-08-09T17:10:58.440Z,13.50
2022-08-09T17:13:34.314Z,17.00
2022-08-09T17:16:09.367Z,15.00
2022-08-09T17:18:45.257Z,15.75
2022-08-09T17:21:38.139Z,14.00
2022-08-09T17:24:27.915Z,13.75
2022-08-09T17:27:06.794Z,13.00
2022-08-09T17:29:49.987Z,15.50
2022-08-09T17:32:34.921Z,15.60
2022-08-09T17:35:12.744Z,18.00
2022-08-09T17:38:14.337Z,17.00
2022-08-09T17:40:42.065Z,18.00
2022-08-09T17:43:34.357Z,16.00
2022-08-09T17:46:10.009Z,16.80
2022-08-09T17:48:46.508Z,16.60
2022-08-09T17:51:26.823Z,16.00
2022-08-09T17:54:05.250Z,15.67
2022-08-09T17:56:39.640Z,18.00
2022-08-09T17:59:17.760Z,18.60
2022-08-09T18:02:07.646Z,19.00
2022-08-09T18:04:51.150Z,20.00
2022-08-09T18:07:52.592Z,18.00
2022-08-09T18:11:01.647Z,16.80
2022-08-09T18:13:40.798Z,17.60
2022-08-09T18:16:30.871Z,16.00
2022-08-09T18:20:54.251Z,17.60
2022-08-09T18:21:59.786Z,15.75
2022-08-09T18:24:35.965Z,17.25
2022-08-09T18:27:13.716Z,19.40
2022-08-09T18:30:40.976Z,17.00
2022-08-09T18:32:46.875Z,16.00
2022-08-09T18:35:58.559Z,18.00
2022-08-09T18:38:23.074Z,19.00
2022-08-09T18:41:01.171Z,17.50
2022-08-09T18:43:35.983Z,15.40
2022-08-09T18:46:46.457Z,18.00
2022-08-09T18:49:18.918Z,16.80
2022-08-09T18:51:55.646Z,16.00
2022-08-09T18:54:33.158Z,17.00
2022-08-09T18:57:07.065Z,15.25
2022-08-09T18:59:51.342Z,16.40
2022-08-09T19:02:32.187Z,17.00
2022-08-09T19:05:19.798Z,16.20
2022-08-09T19:08:10.585Z,17.00
2022-08-09T19:10:49.149Z,17.40
2022-08-09T19:13:38.834Z,19.00
2022-08-09T19:16:23.928Z,18.00
2022-08-09T19:19:25.725Z,18.00
2022-08-09T19:22:06.350Z,16.80
2022-08-09T19:25:11.557Z,18.50
2022-08-09T19:27:35.958Z,17.50
2022-08-09T19:30:24.769Z,17.75
2022-08-09T19:33:07.661Z,19.80
2022-08-09T19:35:56.788Z,15.00
2022-08-09T19:38:32.519Z,15.00
2022-08-09T19:41:06.774Z,14.00
2022-08-09T19:44:00.384Z,15.00
2022-08-09T19:46:50.478Z,11.20
2022-08-09T19:50:08.712Z,12.00
2022-08-09T19:52:22.383Z,9.80
2022-08-09T19:55:02.806Z,11.00
2022-08-09T19:57:37.715Z,10.00
2022-08-09T20:00:17.430Z,9.60
2022-08-09T20:04:11.216Z,9.00
2022-08-09T20:05:50.653Z,8.00
2022-08-09T20:08:35.088Z,7.00
2022-08-09T20:11:09.410Z,6.00
2022-08-09T20:13:53.853Z,6.25
2022-08-09T20:16:34.501Z,6.40
2022-08-09T20:19:48.516Z,6.20
2022-08-09T20:22:09.798Z,6.00
2022-08-09T20:25:03.131Z,7.00
2022-08-09T20:27:43.919Z,8.00
2022-08-09T20:30:21.864Z,6.50
2022-08-09T20:32:59.833Z,5.00
2022-08-09T20:35:35.349Z,5.33
2022-08-09T20:38:27.630Z,5.00
2022-08-09T20:41:04.013Z,4.00
2022-08-09T20:43:44.752Z,4.00
2022-08-09T20:46:43.275Z,5.00
2022-08-09T20:49:17.195Z,5.00
2022-08-09T20:51:52.037Z,5.00
2022-08-09T20:54:31.867Z,5.25
2022-08-09T20:57:05.782Z,5.00
2022-08-09T21:00:22.420Z,5.00
2022-08-09T21:02:40.598Z,6.00
2022-08-09T21:05:53.364Z,4.00
2022-08-09T21:08:36.623Z,6.00
2022-08-09T21:14:04.932Z,6.00
2022-08-09T21:16:39.724Z,4.00
2022-08-09T21:20:18.394Z,4.00
2022-08-09T21:22:23.118Z,3.60
2022-08-09T21:25:21.267Z,4.00
2022-08-09T21:27:56.207Z,4.00
2022-08-09T21:30:30.603Z,5.00
2022-08-09T21:33:05.982Z,4.00
2022-08-09T21:35:51.220Z,4.00
2022-08-09T21:38:31.227Z,3.25
2022-08-09T21:41:08.360Z,3.60
2022-08-09T21:43:57.808Z,2.20
2022-08-09T21:46:32.416Z,3.00
2022-08-09T21:49:26.545Z,2.00
2022-08-09T21:52:01.816Z,3.00
2022-08-09T21:54:35.998Z,3.00
2022-08-09T21:57:37.331Z,4.00
2022-08-09T22:00:07.461Z,2.75
2022-08-09T22:02:43.848Z,3.00
2022-08-09T22:05:36.174Z,3.00
2022-08-09T22:08:12.907Z,3.00
2022-08-09T22:11:50.259Z,2.60
2022-08-09T22:13:43.531Z,3.25
2022-08-09T22:16:18.309Z,2.25
2022-08-09T22:18:57.097Z,3.00
2022-08-09T22:21:45.133Z,3.00
2022-08-09T22:24:25.006Z,3.00
2022-08-09T22:27:00.021Z,3.00
2022-08-09T22:29:48.474Z,3.00
2022-08-09T22:32:29.836Z,3.00
2022-08-09T22:36:02.677Z,3.50
2022-08-09T22:38:07.090Z,3.00
2022-08-09T22:41:00.511Z,3.00
2022-08-09T22:44:03.659Z,3.00
2022-08-09T22:48:12.674Z,4.00
2022-08-09T22:49:43.015Z,3.00
2022-08-09T22:52:18.638Z,5.00
2022-08-09T22:54:54.266Z,4.00
2022-08-09T22:57:59.946Z,4.00
2022-08-09T23:00:34.281Z,5.00
2022-08-09T23:03:12.645Z,4.00
2022-08-09T23:05:48.551Z,4.20
2022-08-09T23:08:42.826Z,5.00
2022-08-09T23:11:17.739Z,5.00
2022-08-09T23:13:52.598Z,4.00
2022-08-09T23:16:27.467Z,5.00
2022-08-09T23:19:02.251Z,3.60
2022-08-09T23:21:38.305Z,3.20
2022-08-09T23:24:14.742Z,3.00
2022-08-09T23:26:49.594Z,4.50
